Time;durP1;ratioP1;P1;durP2;ratioP2;P2;SDS_P1;SDS_P2;PMS_P1;PMS_P2;Temp;Humidity;BMP_temperature;BMP_pressure;BME280_temperature;BME280_humidity;BME280_pressure;Samples;Min_cycle;Max_cycle;Signal;HPM_P1;HPM_P2
2021/12/12 00:03:09;;;;;;;7.53;3.28;;;5.80;99.90;;;;;;20803164;28;20072;-44
2021/12/12 00:13:17;;;;;;;6.32;2.63;;;5.70;99.90;;;;;;20787530;28;20029;-44
2021/12/12 00:23:19;;;;;;;4.47;2.35;;;5.80;99.90;;;;;;20804495;28;20037;-44
2021/12/12 00:33:21;;;;;;;6.38;2.55;;;5.80;99.90;;;;;;20802352;28;20037;-44
2021/12/12 00:43:34;;;;;;;8.05;2.35;;;5.80;99.90;;;;;;20801361;28;20044;-44
2021/12/12 00:53:36;;;;;;;6.03;2.22;;;5.80;99.90;;;;;;20799153;28;20671;-44
2021/12/12 01:03:49;;;;;;;6.55;3.35;;;5.90;99.90;;;;;;20804500;28;20539;-44
2021/12/12 01:13:51;;;;;;;9.82;3.53;;;5.90;99.90;;;;;;20812916;28;21543;-44
2021/12/12 01:24:26;;;;;;;7.90;2.65;;;5.80;99.90;;;;;;20822939;28;20044;-44
2021/12/12 01:34:30;;;;;;;10.60;3.25;;;5.80;99.90;;;;;;20818588;28;20025;-44
2021/12/12 01:44:35;;;;;;;10.55;2.22;;;5.80;99.90;;;;;;20817004;28;20409;-44
2021/12/12 01:54:45;;;;;;;7.18;2.60;;;5.90;99.90;;;;;;20818161;28;20039;-44
2021/12/12 02:04:51;;;;;;;10.95;2.15;;;5.80;99.90;;;;;;20821941;28;20131;-44
2021/12/12 02:14:56;;;;;;;3.83;2.30;;;5.80;99.90;;;;;;20808525;28;20471;-44
2021/12/12 02:35:24;;;;;;;8.75;3.47;;;5.80;99.90;;;;;;20829767;28;20044;-44
2021/12/12 02:45:29;;;;;;;8.77;2.83;;;5.80;99.90;;;;;;20811579;28;20037;-44
2021/12/12 02:55:36;;;;;;;10.20;2.92;;;5.90;99.90;;;;;;20829500;28;20045;-44
2021/12/12 03:05:41;;;;;;;4.97;2.63;;;5.90;99.90;;;;;;20827515;28;20055;-44
2021/12/12 03:15:44;;;;;;;8.30;4.22;;;5.90;99.90;;;;;;20828636;28;20041;-44
2021/12/12 03:25:50;;;;;;;9.88;2.85;;;6.00;99.90;;;;;;20824821;28;20599;-44
2021/12/12 03:35:54;;;;;;;10.30;3.97;;;6.00;99.90;;;;;;21225722;23;20029;-43
2021/12/12 03:45:56;;;;;;;12.00;3.72;;;6.20;99.90;;;;;;20820604;28;20040;-45
2021/12/12 03:55:58;;;;;;;16.73;4.72;;;6.20;99.90;;;;;;20821441;28;20037;-43
2021/12/12 04:06:04;;;;;;;9.90;3.90;;;6.20;99.90;;;;;;20817481;28;20228;-42
2021/12/12 04:16:05;;;;;;;9.93;4.22;;;6.30;99.90;;;;;;20817001;28;20033;-43
2021/12/12 04:26:17;;;;;;;12.75;4.35;;;6.40;99.90;;;;;;20809847;28;20067;-42
2021/12/12 04:36:28;;;;;;;15.70;5.13;;;6.50;99.90;;;;;;20812875;28;20041;-44
2021/12/12 04:49:54;;;;;;;13.27;5.65;;;6.60;99.90;;;;;;20818993;28;20491;-44
2021/12/12 04:57:07;;;;;;;18.95;4.45;;;6.70;99.90;;;;;;20745334;28;20048;-44
2021/12/12 05:07:15;;;;;;;11.70;4.68;;;6.80;99.90;;;;;;20749200;28;20065;-44
2021/12/12 05:17:26;;;;;;;10.95;5.00;;;7.00;99.90;;;;;;20748265;28;20041;-44
2021/12/12 05:27:29;;;;;;;15.20;5.13;;;7.00;99.90;;;;;;20750789;28;20045;-44
2021/12/12 05:37:31;;;;;;;13.98;5.03;;;7.10;99.90;;;;;;20843651;28;20056;-44
2021/12/12 05:47:33;;;;;;;13.07;5.18;;;7.10;99.90;;;;;;20907930;28;20051;-44
2021/12/12 05:57:34;;;;;;;12.73;5.03;;;7.20;99.90;;;;;;20911245;28;20407;-44
2021/12/12 06:07:36;;;;;;;23.45;7.65;;;7.20;99.90;;;;;;20916361;28;20036;-44
2021/12/12 06:17:39;;;;;;;18.75;6.25;;;7.30;99.90;;;;;;20918576;28;20041;-44
2021/12/12 06:27:40;;;;;;;18.77;6.13;;;7.30;99.90;;;;;;20910946;28;20045;-44
2021/12/12 06:37:43;;;;;;;21.58;5.82;;;7.40;99.90;;;;;;20914125;28;20041;-44
2021/12/12 06:47:45;;;;;;;19.50;8.45;;;7.40;99.90;;;;;;20914751;28;20396;-44
2021/12/12 06:57:48;;;;;;;22.65;6.72;;;7.60;99.90;;;;;;20914523;28;20040;-44
2021/12/12 07:07:52;;;;;;;25.17;8.02;;;7.60;99.90;;;;;;20913336;28;20041;-44
2021/12/12 07:17:58;;;;;;;19.00;7.07;;;7.70;99.90;;;;;;20907336;28;20045;-44
2021/12/12 07:28:00;;;;;;;28.37;7.03;;;7.70;99.90;;;;;;20904479;28;20041;-44
2021/12/12 07:38:02;;;;;;;28.23;8.93;;;7.80;99.90;;;;;;20889346;28;20045;-44
2021/12/12 07:48:08;;;;;;;20.80;6.72;;;7.90;99.90;;;;;;20906610;28;20040;-44
2021/12/12 07:58:13;;;;;;;19.85;6.65;;;7.90;99.90;;;;;;20890272;28;20040;-44
2021/12/12 08:08:14;;;;;;;24.17;7.82;;;8.00;99.90;;;;;;20895675;28;20058;-44
2021/12/12 08:18:18;;;;;;;27.77;8.48;;;8.10;99.90;;;;;;20901692;28;20044;-44
2021/12/12 08:28:20;;;;;;;25.83;7.32;;;8.10;99.90;;;;;;20896913;28;20037;-44
2021/12/12 08:38:22;;;;;;;16.85;6.65;;;8.20;99.90;;;;;;20857746;28;20041;-44
2021/12/12 08:48:26;;;;;;;27.88;9.10;;;8.20;99.90;;;;;;20838402;28;20504;-44
2021/12/12 08:58:32;;;;;;;25.52;7.78;;;8.30;99.90;;;;;;20840025;28;20399;-44
2021/12/12 09:08:55;;;;;;;19.60;7.07;;;8.40;99.90;;;;;;20835792;28;20037;-44
2021/12/12 09:19:01;;;;;;;23.67;8.15;;;8.50;99.90;;;;;;20925526;28;20045;-44
2021/12/12 09:29:30;;;;;;;18.08;6.15;;;8.50;99.90;;;;;;20927706;28;20044;-44
2021/12/12 09:39:57;;;;;;;19.55;4.97;;;8.60;99.90;;;;;;20831716;28;20038;-45
2021/12/12 10:01:11;;;;;;;13.82;5.50;;;8.80;99.90;;;;;;20935846;28;21368;-44
2021/12/12 10:11:33;;;;;;;18.17;4.85;;;8.80;99.90;;;;;;20934060;28;20033;-44
2021/12/12 10:21:59;;;;;;;17.13;5.80;;;8.90;99.90;;;;;;20930184;28;20049;-44
2021/12/12 10:32:11;;;;;;;13.00;4.93;;;8.90;99.90;;;;;;20936214;28;21456;-45
2021/12/12 10:42:18;;;;;;;9.90;3.65;;;8.90;99.90;;;;;;20847758;28;20041;-44
2021/12/12 10:52:45;;;;;;;15.88;5.53;;;8.90;99.90;;;;;;20850122;28;20116;-44
2021/12/12 11:13:19;;;;;;;14.02;4.05;;;9.00;99.90;;;;;;21023472;23;20029;-44
2021/12/12 11:23:35;;;;;;;9.88;4.05;;;9.10;99.90;;;;;;20763802;28;20052;-45
2021/12/12 11:33:39;;;;;;;12.82;4.78;;;9.20;99.90;;;;;;20763905;28;20030;-44
2021/12/12 11:44:01;;;;;;;9.75;3.40;;;9.20;99.90;;;;;;20770477;28;20033;-44
2021/12/12 11:54:29;;;;;;;10.85;4.50;;;9.40;99.90;;;;;;20686049;28;20393;-44
2021/12/12 12:04:36;;;;;;;19.90;7.57;;;9.50;99.90;;;;;;20686966;28;20051;-45
2021/12/12 12:14:58;;;;;;;8.83;3.80;;;9.60;99.90;;;;;;20753234;28;20041;-44
2021/12/12 12:25:19;;;;;;;9.10;3.63;;;9.70;99.90;;;;;;20667169;28;20583;-44
2021/12/12 12:35:33;;;;;;;7.88;3.63;;;9.80;99.90;;;;;;20659303;28;20038;-44
2021/12/12 12:45:37;;;;;;;7.90;2.90;;;9.90;99.90;;;;;;20672524;28;20054;-44
2021/12/12 12:56:15;;;;;;;9.20;3.92;;;10.00;99.90;;;;;;20674967;28;20346;-44
2021/12/12 13:07:08;;;;;;;9.88;3.58;;;10.20;99.90;;;;;;20690297;28;21279;-44
2021/12/12 13:17:21;;;;;;;9.45;3.70;;;10.20;99.90;;;;;;20763692;28;20461;-44
2021/12/12 13:28:01;;;;;;;8.07;3.15;;;10.30;99.90;;;;;;20759042;28;20037;-44
2021/12/12 13:38:25;;;;;;;7.40;3.47;;;10.30;99.90;;;;;;20765141;28;20649;-44
2021/12/12 13:48:46;;;;;;;6.65;3.65;;;10.40;99.90;;;;;;20765420;28;20034;-44
2021/12/12 13:59:00;;;;;;;11.90;4.32;;;10.40;99.90;;;;;;20761017;28;21311;-44
2021/12/12 14:09:07;;;;;;;11.20;3.92;;;10.50;99.90;;;;;;20772620;28;20042;-44
2021/12/12 14:19:15;;;;;;;12.60;3.75;;;10.60;99.90;;;;;;20773204;28;20071;-44
2021/12/12 14:29:22;;;;;;;9.10;3.70;;;10.60;99.90;;;;;;20769575;28;20034;-44
2021/12/12 14:39:24;;;;;;;7.50;2.25;;;10.70;99.90;;;;;;20774734;28;20045;-44
2021/12/12 14:49:36;;;;;;;4.60;1.63;;;10.80;99.90;;;;;;20771356;28;20033;-45
2021/12/12 14:59:40;;;;;;;7.32;2.17;;;10.90;99.90;;;;;;20758887;28;20587;-44
2021/12/12 15:09:55;;;;;;;8.70;2.05;;;10.90;99.90;;;;;;20776391;28;20591;-49
2021/12/12 15:20:00;;;;;;;9.68;2.20;;;11.00;99.90;;;;;;20776577;28;20049;-45
2021/12/12 15:30:09;;;;;;;16.25;4.53;;;11.00;99.90;;;;;;20778649;28;20042;-45
2021/12/12 15:40:13;;;;;;;17.92;5.90;;;11.00;99.90;;;;;;20782092;28;20045;-44
2021/12/12 15:50:35;;;;;;;15.57;6.13;;;10.90;99.90;;;;;;20776483;28;20461;-45
2021/12/12 16:00:45;;;;;;;16.88;4.82;;;10.90;99.90;;;;;;20774936;28;20053;-44
2021/12/12 16:10:51;;;;;;;10.52;4.43;;;10.90;99.90;;;;;;20768976;28;20037;-45
2021/12/12 16:20:53;;;;;;;21.15;6.82;;;10.90;99.90;;;;;;20774842;28;20041;-44
2021/12/12 16:31:02;;;;;;;23.70;6.53;;;10.80;99.90;;;;;;20768905;28;20038;-45
2021/12/12 16:41:10;;;;;;;22.27;6.75;;;10.70;99.90;;;;;;20777363;28;20116;-45
2021/12/12 16:51:22;;;;;;;16.27;5.57;;;10.70;99.90;;;;;;20778900;28;20148;-45
2021/12/12 17:01:34;;;;;;;18.40;5.88;;;10.70;99.90;;;;;;20776876;28;20041;-44
2021/12/12 17:11:39;;;;;;;14.63;5.20;;;10.70;99.90;;;;;;20777198;28;20055;-44
2021/12/12 17:21:46;;;;;;;14.13;5.40;;;10.80;99.90;;;;;;20765226;28;20033;-44
2021/12/12 17:31:48;;;;;;;14.00;5.10;;;10.80;99.90;;;;;;20761119;28;20357;-44
2021/12/12 17:42:09;;;;;;;24.70;5.32;;;10.90;99.90;;;;;;20749500;28;20045;-45
2021/12/12 17:52:38;;;;;;;17.73;5.15;;;10.80;99.90;;;;;;20761855;28;20063;-44
2021/12/12 18:02:42;;;;;;;11.43;4.22;;;10.80;99.90;;;;;;20769055;28;20037;-45
2021/12/12 18:12:43;;;;;;;12.25;4.10;;;10.70;99.90;;;;;;20767506;28;20048;-45
2021/12/12 18:22:58;;;;;;;12.63;5.20;;;10.70;99.90;;;;;;20768030;28;20043;-45
2021/12/12 18:33:27;;;;;;;11.45;4.30;;;10.70;99.90;;;;;;20768093;28;20325;-45
2021/12/12 18:43:31;;;;;;;;;;;10.70;99.90;;;;;;20760896;28;20041;-45
2021/12/12 18:53:44;;;;;;;15.40;5.47;;;10.70;99.90;;;;;;20764731;28;20369;-44
2021/12/12 19:04:07;;;;;;;22.40;6.65;;;10.60;99.90;;;;;;20764306;28;20056;-45
2021/12/12 19:14:11;;;;;;;17.08;4.38;;;10.70;99.90;;;;;;20676646;28;20304;-44
2021/12/12 19:24:18;;;;;;;12.93;4.20;;;10.60;99.90;;;;;;20680284;28;20046;-44
2021/12/12 19:34:22;;;;;;;10.90;4.90;;;10.70;99.90;;;;;;20687797;28;20041;-45
2021/12/12 19:44:27;;;;;;;23.52;7.15;;;10.70;99.90;;;;;;20675170;28;20038;-45
2021/12/12 19:54:31;;;;;;;22.70;5.53;;;10.70;99.90;;;;;;20682961;28;20501;-44
2021/12/12 20:04:42;;;;;;;16.67;5.75;;;10.80;99.90;;;;;;20685131;28;20054;-45
2021/12/12 20:14:48;;;;;;;12.40;3.67;;;10.80;99.90;;;;;;20769055;28;20395;-44
2021/12/12 20:25:11;;;;;;;13.05;4.45;;;10.80;99.90;;;;;;20678224;28;20296;-45
2021/12/12 20:35:21;;;;;;;12.40;3.50;;;10.80;99.90;;;;;;20671749;28;20034;-44
2021/12/12 20:45:31;;;;;;;10.88;4.07;;;10.80;99.90;;;;;;20672060;28;20077;-45
2021/12/12 20:55:37;;;;;;;13.20;3.95;;;10.90;99.90;;;;;;20671939;28;20076;-47
2021/12/12 21:05:51;;;;;;;12.50;3.72;;;10.80;99.90;;;;;;20693982;28;20050;-44
2021/12/12 21:15:57;;;;;;;13.10;4.35;;;10.80;99.90;;;;;;20719793;28;21298;-44
2021/12/12 21:26:12;;;;;;;16.63;5.57;;;10.80;99.90;;;;;;20733161;28;20091;-45
2021/12/12 21:36:54;;;;;;;17.42;5.93;;;10.70;99.90;;;;;;20747853;28;20037;-44
2021/12/12 21:46:55;;;;;;;13.75;4.90;;;10.70;99.90;;;;;;20730748;28;20776;-45
2021/12/12 21:57:01;;;;;;;14.57;5.70;;;10.70;99.90;;;;;;20747447;28;20034;-44
2021/12/12 22:07:09;;;;;;;10.07;4.10;;;10.80;99.90;;;;;;20743848;28;20037;-44
2021/12/12 22:17:25;;;;;;;11.70;4.53;;;10.70;99.90;;;;;;20743307;28;20511;-44
2021/12/12 22:27:32;;;;;;;11.07;4.40;;;10.70;99.90;;;;;;20738169;28;20042;-45
2021/12/12 22:37:34;;;;;;;10.10;4.17;;;10.70;99.90;;;;;;20742722;28;20029;-45
2021/12/12 22:47:37;;;;;;;12.25;3.75;;;10.60;99.90;;;;;;20726032;28;20500;-44
2021/12/12 22:58:31;;;;;;;18.33;5.03;;;10.60;99.90;;;;;;20738931;28;20049;-44
2021/12/12 23:08:39;;;;;;;16.50;4.93;;;10.60;99.90;;;;;;20647511;28;20717;-44
2021/12/12 23:18:47;;;;;;;12.65;4.55;;;10.60;99.90;;;;;;20737043;28;20048;-44
2021/12/12 23:39:15;;;;;;;12.15;4.13;;;10.60;99.90;;;;;;20740646;28;19917;-44
2021/12/12 23:49:24;;;;;;;9.45;3.40;;;10.60;99.90;;;;;;20735095;28;20521;-44
2021/12/12 23:59:27;;;;;;;9.55;4.70;;;10.60;99.90;;;;;;20731357;28;20048;-44
